sensor_id;sensor_type;location;lat;lon;timestamp;P1;durP1;ratioP1;P2;durP2;ratioP2
37973;SDS011;23796;51.458;7.000;2022-10-16T00:00:38;5.25;;;1.23;;
37973;SDS011;23796;51.458;7.000;2022-10-16T00:03:08;3.72;;;1.23;;
37973;SDS011;23796;51.458;7.000;2022-10-16T00:05:38;3.35;;;1.38;;
37973;SDS011;23796;51.458;7.000;2022-10-16T00:08:07;3.83;;;1.27;;
37973;SDS011;23796;51.458;7.000;2022-10-16T00:10:36;4.32;;;1.20;;
37973;SDS011;23796;51.458;7.000;2022-10-16T00:13:05;3.20;;;1.20;;
37973;SDS011;23796;51.458;7.000;2022-10-16T00:15:35;3.08;;;1.15;;
37973;SDS011;23796;51.458;7.000;2022-10-16T00:18:04;5.25;;;1.50;;
37973;SDS011;23796;51.458;7.000;2022-10-16T00:20:35;4.65;;;1.30;;
37973;SDS011;23796;51.458;7.000;2022-10-16T00:23:02;3.05;;;0.90;;
37973;SDS011;23796;51.458;7.000;2022-10-16T00:25:28;3.90;;;1.23;;
37973;SDS011;23796;51.458;7.000;2022-10-16T00:27:57;4.72;;;1.67;;
37973;SDS011;23796;51.458;7.000;2022-10-16T00:30:24;3.20;;;1.05;;
37973;SDS011;23796;51.458;7.000;2022-10-16T00:32:51;5.47;;;1.50;;
37973;SDS011;23796;51.458;7.000;2022-10-16T00:35:19;5.80;;;1.38;;
37973;SDS011;23796;51.458;7.000;2022-10-16T00:37:47;2.60;;;1.05;;
37973;SDS011;23796;51.458;7.000;2022-10-16T00:40:15;2.65;;;1.05;;
37973;SDS011;23796;51.458;7.000;2022-10-16T00:42:41;3.45;;;0.90;;
37973;SDS011;23796;51.458;7.000;2022-10-16T00:45:09;3.88;;;1.77;;
37973;SDS011;23796;51.458;7.000;2022-10-16T00:47:53;4.60;;;1.27;;
37973;SDS011;23796;51.458;7.000;2022-10-16T00:53:02;4.30;;;1.05;;
37973;SDS011;23796;51.458;7.000;2022-10-16T00:55:28;3.28;;;1.05;;
37973;SDS011;23796;51.458;7.000;2022-10-16T00:57:55;5.32;;;1.10;;
37973;SDS011;23796;51.458;7.000;2022-10-16T01:00:24;3.05;;;0.95;;
37973;SDS011;23796;51.458;7.000;2022-10-16T01:02:53;3.60;;;0.88;;
37973;SDS011;23796;51.458;7.000;2022-10-16T01:05:22;4.07;;;0.90;;
37973;SDS011;23796;51.458;7.000;2022-10-16T01:07:55;2.75;;;1.08;;
37973;SDS011;23796;51.458;7.000;2022-10-16T01:13:06;4.22;;;1.30;;
37973;SDS011;23796;51.458;7.000;2022-10-16T01:18:00;2.50;;;0.95;;
37973;SDS011;23796;51.458;7.000;2022-10-16T01:20:33;3.25;;;1.00;;
37973;SDS011;23796;51.458;7.000;2022-10-16T01:28:40;2.15;;;0.65;;
37973;SDS011;23796;51.458;7.000;2022-10-16T01:31:18;3.10;;;1.05;;
37973;SDS011;23796;51.458;7.000;2022-10-16T01:33:48;2.60;;;0.90;;
37973;SDS011;23796;51.458;7.000;2022-10-16T01:36:23;2.42;;;1.10;;
37973;SDS011;23796;51.458;7.000;2022-10-16T01:38:53;5.22;;;1.00;;
37973;SDS011;23796;51.458;7.000;2022-10-16T01:41:36;3.20;;;1.05;;
37973;SDS011;23796;51.458;7.000;2022-10-16T01:46:39;5.78;;;0.95;;
37973;SDS011;23796;51.458;7.000;2022-10-16T01:49:10;1.40;;;0.65;;
37973;SDS011;23796;51.458;7.000;2022-10-16T01:51:37;3.55;;;0.90;;
37973;SDS011;23796;51.458;7.000;2022-10-16T01:54:09;3.05;;;0.70;;
37973;SDS011;23796;51.458;7.000;2022-10-16T01:56:38;2.08;;;0.77;;
37973;SDS011;23796;51.458;7.000;2022-10-16T01:59:12;5.05;;;0.90;;
37973;SDS011;23796;51.458;7.000;2022-10-16T02:01:42;4.18;;;1.13;;
37973;SDS011;23796;51.458;7.000;2022-10-16T02:04:15;2.22;;;0.80;;
37973;SDS011;23796;51.458;7.000;2022-10-16T02:06:42;3.45;;;1.10;;
37973;SDS011;23796;51.458;7.000;2022-10-16T02:09:08;2.72;;;1.10;;
37973;SDS011;23796;51.458;7.000;2022-10-16T02:11:34;2.90;;;0.93;;
37973;SDS011;23796;51.458;7.000;2022-10-16T02:14:06;3.83;;;0.85;;
37973;SDS011;23796;51.458;7.000;2022-10-16T02:19:09;3.35;;;1.10;;
37973;SDS011;23796;51.458;7.000;2022-10-16T02:21:42;3.70;;;1.02;;
37973;SDS011;23796;51.458;7.000;2022-10-16T02:27:10;2.55;;;0.93;;
37973;SDS011;23796;51.458;7.000;2022-10-16T02:29:47;3.55;;;0.98;;
37973;SDS011;23796;51.458;7.000;2022-10-16T02:32:21;3.90;;;0.90;;
37973;SDS011;23796;51.458;7.000;2022-10-16T02:34:49;2.65;;;1.10;;
37973;SDS011;23796;51.458;7.000;2022-10-16T02:37:16;1.88;;;0.80;;
37973;SDS011;23796;51.458;7.000;2022-10-16T02:39:43;5.10;;;1.35;;
37973;SDS011;23796;51.458;7.000;2022-10-16T02:42:13;2.35;;;0.77;;
37973;SDS011;23796;51.458;7.000;2022-10-16T02:44:39;2.03;;;0.70;;
37973;SDS011;23796;51.458;7.000;2022-10-16T02:47:05;1.83;;;0.90;;
37973;SDS011;23796;51.458;7.000;2022-10-16T02:49:31;2.58;;;0.70;;
37973;SDS011;23796;51.458;7.000;2022-10-16T02:51:56;1.92;;;0.60;;
37973;SDS011;23796;51.458;7.000;2022-10-16T02:54:24;2.42;;;0.70;;
37973;SDS011;23796;51.458;7.000;2022-10-16T02:56:52;2.05;;;0.77;;
37973;SDS011;23796;51.458;7.000;2022-10-16T02:59:20;2.88;;;1.00;;
37973;SDS011;23796;51.458;7.000;2022-10-16T03:01:46;2.50;;;1.08;;
37973;SDS011;23796;51.458;7.000;2022-10-16T03:04:11;3.72;;;1.15;;
37973;SDS011;23796;51.458;7.000;2022-10-16T03:06:37;2.97;;;0.80;;
37973;SDS011;23796;51.458;7.000;2022-10-16T03:09:05;1.83;;;0.77;;
37973;SDS011;23796;51.458;7.000;2022-10-16T03:11:33;1.67;;;0.60;;
37973;SDS011;23796;51.458;7.000;2022-10-16T03:14:01;2.22;;;0.60;;
37973;SDS011;23796;51.458;7.000;2022-10-16T03:16:26;3.03;;;0.70;;
37973;SDS011;23796;51.458;7.000;2022-10-16T03:18:52;2.47;;;0.70;;
37973;SDS011;23796;51.458;7.000;2022-10-16T03:21:17;3.97;;;0.80;;
37973;SDS011;23796;51.458;7.000;2022-10-16T03:23:43;3.10;;;0.70;;
37973;SDS011;23796;51.458;7.000;2022-10-16T03:26:08;2.42;;;0.70;;
37973;SDS011;23796;51.458;7.000;2022-10-16T03:28:34;2.38;;;0.70;;
37973;SDS011;23796;51.458;7.000;2022-10-16T03:31:02;1.33;;;0.55;;
37973;SDS011;23796;51.458;7.000;2022-10-16T03:33:30;0.80;;;0.40;;
37973;SDS011;23796;51.458;7.000;2022-10-16T03:35:55;1.63;;;0.60;;
37973;SDS011;23796;51.458;7.000;2022-10-16T03:38:23;2.20;;;0.70;;
37973;SDS011;23796;51.458;7.000;2022-10-16T03:40:53;1.40;;;0.60;;
37973;SDS011;23796;51.458;7.000;2022-10-16T03:43:19;1.77;;;0.60;;
37973;SDS011;23796;51.458;7.000;2022-10-16T03:45:49;3.63;;;0.70;;
37973;SDS011;23796;51.458;7.000;2022-10-16T03:48:18;2.10;;;0.70;;
37973;SDS011;23796;51.458;7.000;2022-10-16T03:50:46;2.17;;;0.77;;
37973;SDS011;23796;51.458;7.000;2022-10-16T03:53:13;2.78;;;0.90;;
37973;SDS011;23796;51.458;7.000;2022-10-16T03:55:41;1.88;;;0.60;;
37973;SDS011;23796;51.458;7.000;2022-10-16T03:58:11;1.53;;;0.70;;
37973;SDS011;23796;51.458;7.000;2022-10-16T04:00:43;2.75;;;0.80;;
37973;SDS011;23796;51.458;7.000;2022-10-16T04:05:36;2.50;;;0.63;;
37973;SDS011;23796;51.458;7.000;2022-10-16T04:08:04;1.60;;;0.70;;
37973;SDS011;23796;51.458;7.000;2022-10-16T04:10:29;2.95;;;1.25;;
37973;SDS011;23796;51.458;7.000;2022-10-16T04:12:55;2.15;;;0.68;;
37973;SDS011;23796;51.458;7.000;2022-10-16T04:15:23;6.70;;;1.08;;
37973;SDS011;23796;51.458;7.000;2022-10-16T04:17:49;2.08;;;0.80;;
37973;SDS011;23796;51.458;7.000;2022-10-16T04:20:15;2.78;;;0.57;;
37973;SDS011;23796;51.458;7.000;2022-10-16T04:22:41;2.75;;;1.00;;
37973;SDS011;23796;51.458;7.000;2022-10-16T04:25:10;2.08;;;0.80;;
37973;SDS011;23796;51.458;7.000;2022-10-16T04:27:38;2.83;;;0.85;;
37973;SDS011;23796;51.458;7.000;2022-10-16T04:30:04;2.53;;;0.77;;
37973;SDS011;23796;51.458;7.000;2022-10-16T04:32:30;2.55;;;0.93;;
37973;SDS011;23796;51.458;7.000;2022-10-16T04:34:56;2.42;;;0.90;;
37973;SDS011;23796;51.458;7.000;2022-10-16T04:37:25;1.92;;;0.70;;
37973;SDS011;23796;51.458;7.000;2022-10-16T04:39:52;2.80;;;0.80;;
37973;SDS011;23796;51.458;7.000;2022-10-16T04:42:20;3.40;;;0.70;;
37973;SDS011;23796;51.458;7.000;2022-10-16T04:44:46;1.85;;;0.82;;
37973;SDS011;23796;51.458;7.000;2022-10-16T04:47:14;3.80;;;0.80;;
37973;SDS011;23796;51.458;7.000;2022-10-16T04:49:40;3.65;;;1.10;;
37973;SDS011;23796;51.458;7.000;2022-10-16T04:52:08;2.08;;;0.65;;
37973;SDS011;23796;51.458;7.000;2022-10-16T04:54:34;2.53;;;0.85;;
37973;SDS011;23796;51.458;7.000;2022-10-16T04:57:00;3.22;;;0.90;;
37973;SDS011;23796;51.458;7.000;2022-10-16T04:59:26;2.40;;;0.88;;
37973;SDS011;23796;51.458;7.000;2022-10-16T05:01:54;1.80;;;0.70;;
37973;SDS011;23796;51.458;7.000;2022-10-16T05:04:22;4.15;;;0.80;;
37973;SDS011;23796;51.458;7.000;2022-10-16T05:06:48;3.53;;;0.80;;
37973;SDS011;23796;51.458;7.000;2022-10-16T05:09:16;2.03;;;0.70;;
37973;SDS011;23796;51.458;7.000;2022-10-16T05:11:41;3.05;;;1.13;;
37973;SDS011;23796;51.458;7.000;2022-10-16T05:14:07;2.85;;;0.73;;
37973;SDS011;23796;51.458;7.000;2022-10-16T05:16:35;4.65;;;0.90;;
37973;SDS011;23796;51.458;7.000;2022-10-16T05:19:00;2.17;;;0.70;;
37973;SDS011;23796;51.458;7.000;2022-10-16T05:21:28;2.42;;;0.70;;
37973;SDS011;23796;51.458;7.000;2022-10-16T05:23:57;3.70;;;0.98;;
37973;SDS011;23796;51.458;7.000;2022-10-16T05:26:25;3.55;;;0.90;;
37973;SDS011;23796;51.458;7.000;2022-10-16T05:28:50;4.57;;;1.30;;
37973;SDS011;23796;51.458;7.000;2022-10-16T05:31:16;3.58;;;1.00;;
37973;SDS011;23796;51.458;7.000;2022-10-16T05:33:46;3.47;;;0.70;;
37973;SDS011;23796;51.458;7.000;2022-10-16T05:36:14;2.15;;;0.60;;
37973;SDS011;23796;51.458;7.000;2022-10-16T05:38:40;3.92;;;1.00;;
37973;SDS011;23796;51.458;7.000;2022-10-16T05:41:07;2.55;;;0.70;;
37973;SDS011;23796;51.458;7.000;2022-10-16T05:43:33;4.50;;;0.90;;
37973;SDS011;23796;51.458;7.000;2022-10-16T05:46:00;1.63;;;0.60;;
37973;SDS011;23796;51.458;7.000;2022-10-16T05:48:30;2.20;;;0.80;;
37973;SDS011;23796;51.458;7.000;2022-10-16T05:51:02;3.03;;;0.98;;
37973;SDS011;23796;51.458;7.000;2022-10-16T05:53:30;1.88;;;0.65;;
37973;SDS011;23796;51.458;7.000;2022-10-16T05:55:58;2.15;;;0.70;;
37973;SDS011;23796;51.458;7.000;2022-10-16T05:58:27;1.80;;;0.60;;
37973;SDS011;23796;51.458;7.000;2022-10-16T06:00:59;3.40;;;0.70;;
37973;SDS011;23796;51.458;7.000;2022-10-16T06:03:26;2.95;;;0.88;;
37973;SDS011;23796;51.458;7.000;2022-10-16T06:05:52;3.38;;;0.80;;
37973;SDS011;23796;51.458;7.000;2022-10-16T06:08:18;2.80;;;0.60;;
37973;SDS011;23796;51.458;7.000;2022-10-16T06:10:45;2.20;;;0.70;;
37973;SDS011;23796;51.458;7.000;2022-10-16T06:13:12;4.13;;;0.82;;
37973;SDS011;23796;51.458;7.000;2022-10-16T06:15:39;2.33;;;0.70;;
37973;SDS011;23796;51.458;7.000;2022-10-16T06:18:07;1.77;;;0.50;;
37973;SDS011;23796;51.458;7.000;2022-10-16T06:20:36;2.67;;;1.27;;
37973;SDS011;23796;51.458;7.000;2022-10-16T06:23:04;3.95;;;0.80;;
37973;SDS011;23796;51.458;7.000;2022-10-16T06:25:30;2.35;;;0.70;;
37973;SDS011;23796;51.458;7.000;2022-10-16T06:27:56;2.80;;;0.90;;
37973;SDS011;23796;51.458;7.000;2022-10-16T06:30:22;4.20;;;0.90;;
37973;SDS011;23796;51.458;7.000;2022-10-16T06:32:52;4.15;;;0.88;;
37973;SDS011;23796;51.458;7.000;2022-10-16T06:35:20;3.67;;;0.90;;
37973;SDS011;23796;51.458;7.000;2022-10-16T06:37:46;3.10;;;0.90;;
37973;SDS011;23796;51.458;7.000;2022-10-16T06:40:12;3.88;;;1.05;;
37973;SDS011;23796;51.458;7.000;2022-10-16T06:42:39;1.95;;;1.00;;
37973;SDS011;23796;51.458;7.000;2022-10-16T06:45:05;3.05;;;0.82;;
37973;SDS011;23796;51.458;7.000;2022-10-16T06:47:31;4.00;;;0.82;;
37973;SDS011;23796;51.458;7.000;2022-10-16T06:49:59;6.22;;;1.10;;
37973;SDS011;23796;51.458;7.000;2022-10-16T06:52:27;3.83;;;1.10;;
37973;SDS011;23796;51.458;7.000;2022-10-16T06:54:53;2.38;;;0.70;;
37973;SDS011;23796;51.458;7.000;2022-10-16T06:57:20;1.20;;;0.60;;
37973;SDS011;23796;51.458;7.000;2022-10-16T06:59:46;5.82;;;0.88;;
37973;SDS011;23796;51.458;7.000;2022-10-16T07:02:12;2.88;;;0.95;;
37973;SDS011;23796;51.458;7.000;2022-10-16T07:04:37;2.75;;;0.80;;
37973;SDS011;23796;51.458;7.000;2022-10-16T07:07:07;1.83;;;0.80;;
37973;SDS011;23796;51.458;7.000;2022-10-16T07:09:33;2.50;;;0.80;;
37973;SDS011;23796;51.458;7.000;2022-10-16T07:12:01;4.05;;;1.50;;
37973;SDS011;23796;51.458;7.000;2022-10-16T07:14:26;2.03;;;0.75;;
37973;SDS011;23796;51.458;7.000;2022-10-16T07:16:52;2.08;;;0.80;;
37973;SDS011;23796;51.458;7.000;2022-10-16T07:19:18;1.38;;;0.70;;
37973;SDS011;23796;51.458;7.000;2022-10-16T07:21:44;2.22;;;0.80;;
37973;SDS011;23796;51.458;7.000;2022-10-16T07:24:13;3.20;;;0.95;;
37973;SDS011;23796;51.458;7.000;2022-10-16T07:26:41;2.13;;;0.75;;
37973;SDS011;23796;51.458;7.000;2022-10-16T07:29:16;2.25;;;0.70;;
37973;SDS011;23796;51.458;7.000;2022-10-16T07:31:43;2.70;;;0.60;;
37973;SDS011;23796;51.458;7.000;2022-10-16T07:34:10;2.15;;;0.75;;
37973;SDS011;23796;51.458;7.000;2022-10-16T07:36:40;2.38;;;0.70;;
37973;SDS011;23796;51.458;7.000;2022-10-16T07:39:05;2.97;;;0.90;;
37973;SDS011;23796;51.458;7.000;2022-10-16T07:41:33;6.90;;;1.20;;
37973;SDS011;23796;51.458;7.000;2022-10-16T07:44:01;3.55;;;0.80;;
37973;SDS011;23796;51.458;7.000;2022-10-16T07:46:28;2.42;;;0.93;;
37973;SDS011;23796;51.458;7.000;2022-10-16T07:48:59;3.08;;;1.00;;
37973;SDS011;23796;51.458;7.000;2022-10-16T07:51:25;2.40;;;0.80;;
37973;SDS011;23796;51.458;7.000;2022-10-16T07:53:54;2.90;;;0.70;;
37973;SDS011;23796;51.458;7.000;2022-10-16T07:56:20;3.78;;;0.80;;
37973;SDS011;23796;51.458;7.000;2022-10-16T07:58:46;4.95;;;1.67;;
37973;SDS011;23796;51.458;7.000;2022-10-16T08:01:15;2.10;;;0.70;;
37973;SDS011;23796;51.458;7.000;2022-10-16T08:03:47;3.58;;;0.80;;
37973;SDS011;23796;51.458;7.000;2022-10-16T08:06:15;2.25;;;0.80;;
37973;SDS011;23796;51.458;7.000;2022-10-16T08:08:44;1.60;;;0.60;;
37973;SDS011;23796;51.458;7.000;2022-10-16T08:11:09;1.55;;;0.60;;
37973;SDS011;23796;51.458;7.000;2022-10-16T08:13:39;4.35;;;1.00;;
37973;SDS011;23796;51.458;7.000;2022-10-16T08:16:06;2.50;;;0.70;;
37973;SDS011;23796;51.458;7.000;2022-10-16T08:18:35;3.00;;;0.90;;
37973;SDS011;23796;51.458;7.000;2022-10-16T08:21:03;5.35;;;0.85;;
37973;SDS011;23796;51.458;7.000;2022-10-16T08:23:32;3.70;;;0.63;;
37973;SDS011;23796;51.458;7.000;2022-10-16T08:26:04;5.35;;;1.50;;
37973;SDS011;23796;51.458;7.000;2022-10-16T08:28:31;3.85;;;0.60;;
37973;SDS011;23796;51.458;7.000;2022-10-16T08:31:04;5.25;;;0.90;;
37973;SDS011;23796;51.458;7.000;2022-10-16T08:33:31;2.97;;;0.70;;
37973;SDS011;23796;51.458;7.000;2022-10-16T08:35:56;1.98;;;0.60;;
37973;SDS011;23796;51.458;7.000;2022-10-16T08:38:24;3.55;;;0.93;;
37973;SDS011;23796;51.458;7.000;2022-10-16T08:40:52;3.60;;;0.90;;
37973;SDS011;23796;51.458;7.000;2022-10-16T08:43:30;2.60;;;0.60;;
37973;SDS011;23796;51.458;7.000;2022-10-16T08:48:56;3.17;;;0.80;;
37973;SDS011;23796;51.458;7.000;2022-10-16T08:51:24;7.40;;;1.13;;
37973;SDS011;23796;51.458;7.000;2022-10-16T08:56:22;2.35;;;0.90;;
37973;SDS011;23796;51.458;7.000;2022-10-16T08:58:48;3.25;;;0.68;;
37973;SDS011;23796;51.458;7.000;2022-10-16T09:01:15;3.00;;;0.80;;
37973;SDS011;23796;51.458;7.000;2022-10-16T09:14:43;3.63;;;1.10;;
37973;SDS011;23796;51.458;7.000;2022-10-16T09:19:46;3.17;;;0.60;;
37973;SDS011;23796;51.458;7.000;2022-10-16T09:22:35;4.03;;;0.77;;
37973;SDS011;23796;51.458;7.000;2022-10-16T09:25:04;3.63;;;0.68;;
37973;SDS011;23796;51.458;7.000;2022-10-16T09:27:40;2.47;;;0.65;;
37973;SDS011;23796;51.458;7.000;2022-10-16T09:30:13;3.30;;;0.80;;
37973;SDS011;23796;51.458;7.000;2022-10-16T09:32:41;2.70;;;0.60;;
37973;SDS011;23796;51.458;7.000;2022-10-16T09:35:18;2.80;;;0.60;;
37973;SDS011;23796;51.458;7.000;2022-10-16T09:37:47;3.95;;;0.70;;
37973;SDS011;23796;51.458;7.000;2022-10-16T09:48:51;3.22;;;0.60;;
37973;SDS011;23796;51.458;7.000;2022-10-16T09:56:27;2.10;;;0.60;;
37973;SDS011;23796;51.458;7.000;2022-10-16T09:59:14;4.10;;;1.10;;
37973;SDS011;23796;51.458;7.000;2022-10-16T10:04:10;7.18;;;0.90;;
37973;SDS011;23796;51.458;7.000;2022-10-16T10:11:59;3.45;;;0.70;;
37973;SDS011;23796;51.458;7.000;2022-10-16T10:17:02;3.50;;;0.65;;
37973;SDS011;23796;51.458;7.000;2022-10-16T10:22:31;3.67;;;1.20;;
37973;SDS011;23796;51.458;7.000;2022-10-16T10:27:39;2.78;;;0.70;;
37973;SDS011;23796;51.458;7.000;2022-10-16T10:30:15;2.45;;;0.77;;
37973;SDS011;23796;51.458;7.000;2022-10-16T10:44:03;2.60;;;0.70;;
37973;SDS011;23796;51.458;7.000;2022-10-16T10:47:03;4.95;;;1.08;;
37973;SDS011;23796;51.458;7.000;2022-10-16T10:55:28;2.65;;;0.65;;
37973;SDS011;23796;51.458;7.000;2022-10-16T11:01:36;2.53;;;0.80;;
37973;SDS011;23796;51.458;7.000;2022-10-16T11:04:33;2.13;;;0.90;;
37973;SDS011;23796;51.458;7.000;2022-10-16T11:07:04;3.28;;;1.08;;
37973;SDS011;23796;51.458;7.000;2022-10-16T11:09:36;4.43;;;1.40;;
37973;SDS011;23796;51.458;7.000;2022-10-16T11:12:21;2.33;;;0.68;;
37973;SDS011;23796;51.458;7.000;2022-10-16T11:17:44;2.67;;;0.50;;
37973;SDS011;23796;51.458;7.000;2022-10-16T11:20:14;2.45;;;0.50;;
37973;SDS011;23796;51.458;7.000;2022-10-16T11:22:48;3.53;;;0.60;;
37973;SDS011;23796;51.458;7.000;2022-10-16T11:25:20;3.17;;;0.68;;
37973;SDS011;23796;51.458;7.000;2022-10-16T11:30:30;2.72;;;0.80;;
37973;SDS011;23796;51.458;7.000;2022-10-16T11:35:47;2.88;;;0.70;;
37973;SDS011;23796;51.458;7.000;2022-10-16T11:40:53;3.53;;;0.63;;
37973;SDS011;23796;51.458;7.000;2022-10-16T11:43:34;3.78;;;0.77;;
37973;SDS011;23796;51.458;7.000;2022-10-16T11:46:17;2.03;;;0.43;;
37973;SDS011;23796;51.458;7.000;2022-10-16T11:48:48;2.17;;;0.60;;
37973;SDS011;23796;51.458;7.000;2022-10-16T11:54:29;2.30;;;0.52;;
37973;SDS011;23796;51.458;7.000;2022-10-16T11:57:03;2.25;;;0.70;;
37973;SDS011;23796;51.458;7.000;2022-10-16T11:59:44;3.05;;;0.70;;
37973;SDS011;23796;51.458;7.000;2022-10-16T12:08:08;2.17;;;0.70;;
37973;SDS011;23796;51.458;7.000;2022-10-16T12:10:38;3.03;;;0.90;;
37973;SDS011;23796;51.458;7.000;2022-10-16T12:19:03;3.65;;;0.80;;
37973;SDS011;23796;51.458;7.000;2022-10-16T12:21:36;2.70;;;0.47;;
37973;SDS011;23796;51.458;7.000;2022-10-16T12:24:04;2.22;;;0.70;;
37973;SDS011;23796;51.458;7.000;2022-10-16T12:26:34;2.92;;;0.75;;
37973;SDS011;23796;51.458;7.000;2022-10-16T12:31:59;2.20;;;0.30;;
37973;SDS011;23796;51.458;7.000;2022-10-16T12:34:27;2.50;;;0.60;;
37973;SDS011;23796;51.458;7.000;2022-10-16T12:37:13;3.78;;;1.02;;
37973;SDS011;23796;51.458;7.000;2022-10-16T12:39:48;3.78;;;0.65;;
37973;SDS011;23796;51.458;7.000;2022-10-16T12:42:31;1.88;;;0.60;;
37973;SDS011;23796;51.458;7.000;2022-10-16T12:45:00;2.58;;;0.43;;
37973;SDS011;23796;51.458;7.000;2022-10-16T12:49:58;3.85;;;1.10;;
37973;SDS011;23796;51.458;7.000;2022-10-16T12:52:36;1.85;;;0.43;;
37973;SDS011;23796;51.458;7.000;2022-10-16T12:55:05;3.33;;;0.60;;
37973;SDS011;23796;51.458;7.000;2022-10-16T13:21:58;3.47;;;0.50;;
37973;SDS011;23796;51.458;7.000;2022-10-16T13:24:53;3.97;;;0.63;;
37973;SDS011;23796;51.458;7.000;2022-10-16T13:30:22;3.08;;;0.43;;
37973;SDS011;23796;51.458;7.000;2022-10-16T13:35:33;3.13;;;0.70;;
37973;SDS011;23796;51.458;7.000;2022-10-16T13:38:15;2.88;;;0.40;;
37973;SDS011;23796;51.458;7.000;2022-10-16T13:40:48;2.05;;;0.50;;
37973;SDS011;23796;51.458;7.000;2022-10-16T13:43:49;3.90;;;0.65;;
37973;SDS011;23796;51.458;7.000;2022-10-16T13:46:24;2.63;;;0.90;;
37973;SDS011;23796;51.458;7.000;2022-10-16T13:51:23;2.80;;;0.60;;
37973;SDS011;23796;51.458;7.000;2022-10-16T13:53:51;4.55;;;0.63;;
37973;SDS011;23796;51.458;7.000;2022-10-16T13:56:19;2.35;;;0.70;;
37973;SDS011;23796;51.458;7.000;2022-10-16T13:58:57;3.20;;;0.50;;
37973;SDS011;23796;51.458;7.000;2022-10-16T14:01:47;3.17;;;0.77;;
37973;SDS011;23796;51.458;7.000;2022-10-16T14:04:14;3.28;;;0.80;;
37973;SDS011;23796;51.458;7.000;2022-10-16T14:06:41;3.30;;;0.68;;
37973;SDS011;23796;51.458;7.000;2022-10-16T14:09:23;2.95;;;0.73;;
37973;SDS011;23796;51.458;7.000;2022-10-16T14:11:52;2.53;;;0.70;;
37973;SDS011;23796;51.458;7.000;2022-10-16T14:14:34;3.05;;;0.75;;
37973;SDS011;23796;51.458;7.000;2022-10-16T14:17:13;2.50;;;0.50;;
37973;SDS011;23796;51.458;7.000;2022-10-16T14:19:39;2.20;;;0.60;;
37973;SDS011;23796;51.458;7.000;2022-10-16T14:22:26;2.33;;;0.70;;
37973;SDS011;23796;51.458;7.000;2022-10-16T14:27:26;1.98;;;0.40;;
37973;SDS011;23796;51.458;7.000;2022-10-16T14:35:27;4.28;;;1.10;;
37973;SDS011;23796;51.458;7.000;2022-10-16T14:37:53;4.20;;;0.70;;
37973;SDS011;23796;51.458;7.000;2022-10-16T14:40:27;4.60;;;0.82;;
37973;SDS011;23796;51.458;7.000;2022-10-16T14:43:00;3.45;;;1.13;;
37973;SDS011;23796;51.458;7.000;2022-10-16T14:45:30;2.60;;;0.70;;
37973;SDS011;23796;51.458;7.000;2022-10-16T14:50:26;2.95;;;0.50;;
37973;SDS011;23796;51.458;7.000;2022-10-16T14:52:52;2.08;;;0.38;;
37973;SDS011;23796;51.458;7.000;2022-10-16T14:55:18;4.65;;;0.90;;
37973;SDS011;23796;51.458;7.000;2022-10-16T14:57:44;2.90;;;0.40;;
37973;SDS011;23796;51.458;7.000;2022-10-16T15:00:15;2.80;;;0.60;;
37973;SDS011;23796;51.458;7.000;2022-10-16T15:02:46;2.53;;;0.70;;
37973;SDS011;23796;51.458;7.000;2022-10-16T15:07:51;2.67;;;0.57;;
37973;SDS011;23796;51.458;7.000;2022-10-16T15:10:22;3.22;;;0.85;;
37973;SDS011;23796;51.458;7.000;2022-10-16T15:12:50;3.08;;;0.50;;
37973;SDS011;23796;51.458;7.000;2022-10-16T15:15:25;4.85;;;0.90;;
37973;SDS011;23796;51.458;7.000;2022-10-16T15:18:14;1.73;;;0.50;;
37973;SDS011;23796;51.458;7.000;2022-10-16T15:20:45;5.72;;;0.50;;
37973;SDS011;23796;51.458;7.000;2022-10-16T15:23:13;3.55;;;0.70;;
37973;SDS011;23796;51.458;7.000;2022-10-16T15:25:42;2.03;;;0.63;;
37973;SDS011;23796;51.458;7.000;2022-10-16T15:28:09;1.75;;;0.50;;
37973;SDS011;23796;51.458;7.000;2022-10-16T15:30:36;3.03;;;0.70;;
37973;SDS011;23796;51.458;7.000;2022-10-16T15:33:04;3.20;;;0.80;;
37973;SDS011;23796;51.458;7.000;2022-10-16T15:35:34;2.90;;;0.70;;
37973;SDS011;23796;51.458;7.000;2022-10-16T15:38:00;2.50;;;0.60;;
37973;SDS011;23796;51.458;7.000;2022-10-16T15:40:28;2.80;;;0.80;;
37973;SDS011;23796;51.458;7.000;2022-10-16T15:42:54;3.67;;;1.48;;
37973;SDS011;23796;51.458;7.000;2022-10-16T15:45:20;3.33;;;1.15;;
37973;SDS011;23796;51.458;7.000;2022-10-16T15:47:48;2.20;;;0.80;;
37973;SDS011;23796;51.458;7.000;2022-10-16T15:50:14;2.65;;;0.73;;
37973;SDS011;23796;51.458;7.000;2022-10-16T15:52:43;2.67;;;0.60;;
37973;SDS011;23796;51.458;7.000;2022-10-16T15:55:10;2.58;;;0.77;;
37973;SDS011;23796;51.458;7.000;2022-10-16T15:57:37;2.92;;;0.75;;
37973;SDS011;23796;51.458;7.000;2022-10-16T16:00:07;3.63;;;0.90;;
37973;SDS011;23796;51.458;7.000;2022-10-16T16:02:37;2.65;;;0.70;;
37973;SDS011;23796;51.458;7.000;2022-10-16T16:05:03;2.05;;;0.77;;
37973;SDS011;23796;51.458;7.000;2022-10-16T16:07:34;1.98;;;0.77;;
37973;SDS011;23796;51.458;7.000;2022-10-16T16:10:01;3.88;;;0.82;;
37973;SDS011;23796;51.458;7.000;2022-10-16T16:12:28;3.97;;;1.73;;
37973;SDS011;23796;51.458;7.000;2022-10-16T16:14:56;4.88;;;1.73;;
37973;SDS011;23796;51.458;7.000;2022-10-16T16:17:26;3.90;;;1.10;;
37973;SDS011;23796;51.458;7.000;2022-10-16T16:19:52;3.65;;;1.80;;
37973;SDS011;23796;51.458;7.000;2022-10-16T16:22:20;3.38;;;1.40;;
37973;SDS011;23796;51.458;7.000;2022-10-16T16:24:45;5.18;;;1.20;;
37973;SDS011;23796;51.458;7.000;2022-10-16T16:27:11;4.20;;;1.35;;
37973;SDS011;23796;51.458;7.000;2022-10-16T16:29:38;5.70;;;1.98;;
37973;SDS011;23796;51.458;7.000;2022-10-16T16:32:04;4.85;;;2.05;;
37973;SDS011;23796;51.458;7.000;2022-10-16T16:34:32;5.40;;;2.10;;
37973;SDS011;23796;51.458;7.000;2022-10-16T16:36:57;6.80;;;2.63;;
37973;SDS011;23796;51.458;7.000;2022-10-16T16:39:23;4.68;;;1.95;;
37973;SDS011;23796;51.458;7.000;2022-10-16T16:41:55;7.70;;;2.60;;
37973;SDS011;23796;51.458;7.000;2022-10-16T16:44:23;6.40;;;2.83;;
37973;SDS011;23796;51.458;7.000;2022-10-16T16:46:49;7.57;;;3.22;;
37973;SDS011;23796;51.458;7.000;2022-10-16T16:49:17;5.97;;;3.30;;
37973;SDS011;23796;51.458;7.000;2022-10-16T16:51:42;6.88;;;2.90;;
37973;SDS011;23796;51.458;7.000;2022-10-16T16:54:09;5.28;;;2.22;;
37973;SDS011;23796;51.458;7.000;2022-10-16T16:56:36;8.07;;;3.58;;
37973;SDS011;23796;51.458;7.000;2022-10-16T16:59:10;7.10;;;3.35;;
37973;SDS011;23796;51.458;7.000;2022-10-16T17:01:37;7.82;;;2.70;;
37973;SDS011;23796;51.458;7.000;2022-10-16T17:04:02;6.72;;;3.38;;
37973;SDS011;23796;51.458;7.000;2022-10-16T17:06:31;7.93;;;4.38;;
37973;SDS011;23796;51.458;7.000;2022-10-16T17:08:57;5.70;;;3.10;;
37973;SDS011;23796;51.458;7.000;2022-10-16T17:11:25;6.93;;;3.38;;
37973;SDS011;23796;51.458;7.000;2022-10-16T17:13:52;6.03;;;3.20;;
37973;SDS011;23796;51.458;7.000;2022-10-16T17:16:21;6.50;;;3.97;;
37973;SDS011;23796;51.458;7.000;2022-10-16T17:18:48;5.47;;;2.70;;
37973;SDS011;23796;51.458;7.000;2022-10-16T17:21:14;4.00;;;2.20;;
37973;SDS011;23796;51.458;7.000;2022-10-16T17:23:42;3.88;;;2.08;;
37973;SDS011;23796;51.458;7.000;2022-10-16T17:26:11;3.65;;;1.88;;
37973;SDS011;23796;51.458;7.000;2022-10-16T17:31:07;5.72;;;2.67;;
37973;SDS011;23796;51.458;7.000;2022-10-16T17:33:36;5.60;;;3.03;;
37973;SDS011;23796;51.458;7.000;2022-10-16T17:36:02;6.72;;;3.55;;
37973;SDS011;23796;51.458;7.000;2022-10-16T17:38:28;6.43;;;4.10;;
37973;SDS011;23796;51.458;7.000;2022-10-16T17:40:56;8.95;;;4.15;;
37973;SDS011;23796;51.458;7.000;2022-10-16T17:43:22;10.65;;;4.45;;
37973;SDS011;23796;51.458;7.000;2022-10-16T17:45:48;7.57;;;4.03;;
37973;SDS011;23796;51.458;7.000;2022-10-16T17:48:13;7.43;;;3.55;;
37973;SDS011;23796;51.458;7.000;2022-10-16T17:50:39;6.00;;;3.03;;
37973;SDS011;23796;51.458;7.000;2022-10-16T17:53:06;6.22;;;2.90;;